sensor_id;sensor_type;location;lat;lon;timestamp;P1;durP1;ratioP1;P2;durP2;ratioP2
10061;SDS011;5070;52.382;5.270;2024-03-08T00:00:17;8.25;;;7.13;;
10061;SDS011;5070;52.382;5.270;2024-03-08T00:02:46;10.65;;;10.10;;
10061;SDS011;5070;52.382;5.270;2024-03-08T00:05:19;8.32;;;7.88;;
10061;SDS011;5070;52.382;5.270;2024-03-08T00:07:48;13.38;;;9.68;;
10061;SDS011;5070;52.382;5.270;2024-03-08T00:10:16;12.30;;;8.23;;
10061;SDS011;5070;52.382;5.270;2024-03-08T00:12:44;13.23;;;10.15;;
10061;SDS011;5070;52.382;5.270;2024-03-08T00:15:14;10.77;;;8.02;;
10061;SDS011;5070;52.382;5.270;2024-03-08T00:17:45;8.38;;;7.03;;
10061;SDS011;5070;52.382;5.270;2024-03-08T00:20:14;8.05;;;6.60;;
10061;SDS011;5070;52.382;5.270;2024-03-08T00:22:46;8.88;;;8.38;;
10061;SDS011;5070;52.382;5.270;2024-03-08T00:25:14;6.72;;;6.32;;
10061;SDS011;5070;52.382;5.270;2024-03-08T00:27:43;7.25;;;6.57;;
10061;SDS011;5070;52.382;5.270;2024-03-08T00:30:11;9.00;;;6.38;;
10061;SDS011;5070;52.382;5.270;2024-03-08T00:32:40;14.80;;;8.25;;
10061;SDS011;5070;52.382;5.270;2024-03-08T00:35:09;10.05;;;7.60;;
10061;SDS011;5070;52.382;5.270;2024-03-08T00:37:40;9.82;;;9.32;;
10061;SDS011;5070;52.382;5.270;2024-03-08T00:40:10;8.45;;;7.28;;
10061;SDS011;5070;52.382;5.270;2024-03-08T00:42:39;9.57;;;6.00;;
10061;SDS011;5070;52.382;5.270;2024-03-08T00:45:08;6.90;;;6.03;;
10061;SDS011;5070;52.382;5.270;2024-03-08T00:47:37;9.07;;;8.57;;
10061;SDS011;5070;52.382;5.270;2024-03-08T00:50:06;8.68;;;8.20;;
10061;SDS011;5070;52.382;5.270;2024-03-08T00:52:35;8.75;;;7.72;;
10061;SDS011;5070;52.382;5.270;2024-03-08T00:55:06;8.43;;;7.45;;
10061;SDS011;5070;52.382;5.270;2024-03-08T00:57:38;9.32;;;8.82;;
10061;SDS011;5070;52.382;5.270;2024-03-08T01:00:06;7.88;;;7.47;;
10061;SDS011;5070;52.382;5.270;2024-03-08T01:02:36;12.93;;;8.25;;
10061;SDS011;5070;52.382;5.270;2024-03-08T01:05:07;11.43;;;7.22;;
10061;SDS011;5070;52.382;5.270;2024-03-08T01:07:36;15.95;;;7.57;;
10061;SDS011;5070;52.382;5.270;2024-03-08T01:10:04;7.85;;;7.45;;
10061;SDS011;5070;52.382;5.270;2024-03-08T01:12:35;8.63;;;7.40;;
10061;SDS011;5070;52.382;5.270;2024-03-08T01:15:05;10.52;;;8.63;;
10061;SDS011;5070;52.382;5.270;2024-03-08T01:17:34;9.98;;;8.07;;
10061;SDS011;5070;52.382;5.270;2024-03-08T01:20:02;8.48;;;8.02;;
10061;SDS011;5070;52.382;5.270;2024-03-08T01:22:31;9.63;;;8.50;;
10061;SDS011;5070;52.382;5.270;2024-03-08T01:24:59;9.90;;;9.40;;
10061;SDS011;5070;52.382;5.270;2024-03-08T01:27:27;15.45;;;6.53;;
10061;SDS011;5070;52.382;5.270;2024-03-08T01:29:57;9.32;;;8.82;;
10061;SDS011;5070;52.382;5.270;2024-03-08T01:32:26;7.05;;;6.65;;
10061;SDS011;5070;52.382;5.270;2024-03-08T01:34:54;10.90;;;8.50;;
10061;SDS011;5070;52.382;5.270;2024-03-08T01:37:22;10.55;;;8.35;;
10061;SDS011;5070;52.382;5.270;2024-03-08T01:39:50;9.32;;;8.82;;
10061;SDS011;5070;52.382;5.270;2024-03-08T01:42:18;10.05;;;7.35;;
10061;SDS011;5070;52.382;5.270;2024-03-08T01:44:46;8.02;;;7.63;;
10061;SDS011;5070;52.382;5.270;2024-03-08T01:47:15;8.80;;;7.60;;
10061;SDS011;5070;52.382;5.270;2024-03-08T01:49:43;14.82;;;8.07;;
10061;SDS011;5070;52.382;5.270;2024-03-08T01:52:12;8.00;;;6.65;;
10061;SDS011;5070;52.382;5.270;2024-03-08T01:54:41;7.90;;;7.50;;
10061;SDS011;5070;52.382;5.270;2024-03-08T01:57:09;17.50;;;9.23;;
10061;SDS011;5070;52.382;5.270;2024-03-08T01:59:38;8.98;;;7.28;;
10061;SDS011;5070;52.382;5.270;2024-03-08T02:02:07;8.25;;;7.15;;
10061;SDS011;5070;52.382;5.270;2024-03-08T02:04:39;9.27;;;6.40;;
10061;SDS011;5070;52.382;5.270;2024-03-08T02:07:07;9.77;;;7.85;;
10061;SDS011;5070;52.382;5.270;2024-03-08T02:09:36;8.82;;;6.90;;
10061;SDS011;5070;52.382;5.270;2024-03-08T02:12:05;11.65;;;7.20;;
10061;SDS011;5070;52.382;5.270;2024-03-08T02:14:37;11.48;;;7.38;;
10061;SDS011;5070;52.382;5.270;2024-03-08T02:17:06;8.88;;;8.23;;
10061;SDS011;5070;52.382;5.270;2024-03-08T02:19:34;11.35;;;8.27;;
10061;SDS011;5070;52.382;5.270;2024-03-08T02:22:04;11.07;;;10.48;;
10061;SDS011;5070;52.382;5.270;2024-03-08T02:24:33;10.15;;;9.20;;
10061;SDS011;5070;52.382;5.270;2024-03-08T02:27:01;10.18;;;8.75;;
10061;SDS011;5070;52.382;5.270;2024-03-08T02:29:29;9.02;;;7.72;;
10061;SDS011;5070;52.382;5.270;2024-03-08T02:31:58;11.50;;;7.90;;
10061;SDS011;5070;52.382;5.270;2024-03-08T02:34:26;10.27;;;9.77;;
10061;SDS011;5070;52.382;5.270;2024-03-08T02:36:55;9.88;;;9.30;;
10061;SDS011;5070;52.382;5.270;2024-03-08T02:39:24;10.35;;;9.68;;
10061;SDS011;5070;52.382;5.270;2024-03-08T02:41:54;8.90;;;7.60;;
10061;SDS011;5070;52.382;5.270;2024-03-08T02:44:22;10.32;;;9.50;;
10061;SDS011;5070;52.382;5.270;2024-03-08T02:46:50;12.93;;;7.30;;
10061;SDS011;5070;52.382;5.270;2024-03-08T02:49:21;7.47;;;6.85;;
10061;SDS011;5070;52.382;5.270;2024-03-08T02:51:49;11.43;;;8.77;;
10061;SDS011;5070;52.382;5.270;2024-03-08T02:54:17;9.07;;;8.57;;
10061;SDS011;5070;52.382;5.270;2024-03-08T02:56:47;12.85;;;10.30;;
10061;SDS011;5070;52.382;5.270;2024-03-08T02:59:17;7.20;;;6.80;;
10061;SDS011;5070;52.382;5.270;2024-03-08T03:01:45;8.32;;;6.45;;
10061;SDS011;5070;52.382;5.270;2024-03-08T03:04:13;10.52;;;8.68;;
10061;SDS011;5070;52.382;5.270;2024-03-08T03:06:41;6.72;;;6.32;;
10061;SDS011;5070;52.382;5.270;2024-03-08T03:09:09;8.90;;;8.25;;
10061;SDS011;5070;52.382;5.270;2024-03-08T03:11:38;15.40;;;9.23;;
10061;SDS011;5070;52.382;5.270;2024-03-08T03:14:07;9.27;;;8.77;;
10061;SDS011;5070;52.382;5.270;2024-03-08T03:16:35;16.40;;;8.50;;
10061;SDS011;5070;52.382;5.270;2024-03-08T03:19:03;11.18;;;7.25;;
10061;SDS011;5070;52.382;5.270;2024-03-08T03:21:31;11.77;;;11.00;;
10061;SDS011;5070;52.382;5.270;2024-03-08T03:24:02;12.18;;;10.45;;
10061;SDS011;5070;52.382;5.270;2024-03-08T03:26:30;9.88;;;8.57;;
10061;SDS011;5070;52.382;5.270;2024-03-08T03:28:58;7.88;;;7.47;;
10061;SDS011;5070;52.382;5.270;2024-03-08T03:31:30;9.75;;;6.25;;
10061;SDS011;5070;52.382;5.270;2024-03-08T03:33:58;9.43;;;8.80;;
10061;SDS011;5070;52.382;5.270;2024-03-08T03:36:29;9.90;;;9.40;;
10061;SDS011;5070;52.382;5.270;2024-03-08T03:38:57;7.82;;;7.43;;
10061;SDS011;5070;52.382;5.270;2024-03-08T03:41:36;8.52;;;8.02;;
10061;SDS011;5070;52.382;5.270;2024-03-08T03:44:05;10.77;;;7.78;;
10061;SDS011;5070;52.382;5.270;2024-03-08T03:46:34;8.55;;;7.95;;
10061;SDS011;5070;52.382;5.270;2024-03-08T03:49:03;12.02;;;8.95;;
10061;SDS011;5070;52.382;5.270;2024-03-08T03:51:30;8.73;;;7.38;;
10061;SDS011;5070;52.382;5.270;2024-03-08T03:53:59;8.10;;;7.13;;
10061;SDS011;5070;52.382;5.270;2024-03-08T03:56:27;11.50;;;9.32;;
10061;SDS011;5070;52.382;5.270;2024-03-08T03:58:55;12.35;;;8.40;;
10061;SDS011;5070;52.382;5.270;2024-03-08T04:01:23;10.95;;;7.28;;
10061;SDS011;5070;52.382;5.270;2024-03-08T04:03:53;8.23;;;7.75;;
10061;SDS011;5070;52.382;5.270;2024-03-08T04:06:21;10.43;;;6.32;;
10061;SDS011;5070;52.382;5.270;2024-03-08T04:08:50;8.55;;;8.05;;
10061;SDS011;5070;52.382;5.270;2024-03-08T04:11:18;9.90;;;8.02;;
10061;SDS011;5070;52.382;5.270;2024-03-08T04:13:46;9.52;;;8.65;;
10061;SDS011;5070;52.382;5.270;2024-03-08T04:16:14;13.77;;;7.68;;
10061;SDS011;5070;52.382;5.270;2024-03-08T04:18:43;8.00;;;7.57;;
10061;SDS011;5070;52.382;5.270;2024-03-08T04:21:12;4.38;;;4.03;;
10061;SDS011;5070;52.382;5.270;2024-03-08T04:23:40;9.90;;;6.40;;
10061;SDS011;5070;52.382;5.270;2024-03-08T04:26:11;8.00;;;6.82;;
10061;SDS011;5070;52.382;5.270;2024-03-08T04:28:42;7.00;;;5.45;;
10061;SDS011;5070;52.382;5.270;2024-03-08T04:31:09;7.65;;;5.40;;
10061;SDS011;5070;52.382;5.270;2024-03-08T04:33:37;12.70;;;6.93;;
10061;SDS011;5070;52.382;5.270;2024-03-08T04:36:06;7.57;;;6.10;;
10061;SDS011;5070;52.382;5.270;2024-03-08T04:38:41;6.97;;;6.57;;
10061;SDS011;5070;52.382;5.270;2024-03-08T04:41:09;9.88;;;7.13;;
10061;SDS011;5070;52.382;5.270;2024-03-08T04:43:37;19.13;;;8.23;;
10061;SDS011;5070;52.382;5.270;2024-03-08T04:46:05;11.43;;;7.60;;
10061;SDS011;5070;52.382;5.270;2024-03-08T04:48:33;6.80;;;6.40;;
10061;SDS011;5070;52.382;5.270;2024-03-08T04:51:03;7.20;;;6.78;;
10061;SDS011;5070;52.382;5.270;2024-03-08T04:53:32;11.63;;;6.30;;
10061;SDS011;5070;52.382;5.270;2024-03-08T04:56:02;7.53;;;7.13;;
10061;SDS011;5070;52.382;5.270;2024-03-08T04:58:32;7.90;;;7.45;;
10061;SDS011;5070;52.382;5.270;2024-03-08T05:01:00;8.38;;;7.03;;
10061;SDS011;5070;52.382;5.270;2024-03-08T05:03:28;12.35;;;7.43;;
10061;SDS011;5070;52.382;5.270;2024-03-08T05:05:56;10.45;;;8.02;;
10061;SDS011;5070;52.382;5.270;2024-03-08T05:08:24;10.30;;;6.85;;
10061;SDS011;5070;52.382;5.270;2024-03-08T05:10:52;6.32;;;5.97;;
10061;SDS011;5070;52.382;5.270;2024-03-08T05:13:22;9.73;;;7.45;;
10061;SDS011;5070;52.382;5.270;2024-03-08T05:15:50;6.43;;;6.03;;
10061;SDS011;5070;52.382;5.270;2024-03-08T05:18:18;10.02;;;9.50;;
10061;SDS011;5070;52.382;5.270;2024-03-08T05:20:48;9.23;;;8.10;;
10061;SDS011;5070;52.382;5.270;2024-03-08T05:23:17;9.18;;;6.07;;
10061;SDS011;5070;52.382;5.270;2024-03-08T05:25:46;8.50;;;8.00;;
10061;SDS011;5070;52.382;5.270;2024-03-08T05:28:14;11.93;;;9.45;;
10061;SDS011;5070;52.382;5.270;2024-03-08T05:30:44;15.90;;;7.97;;
10061;SDS011;5070;52.382;5.270;2024-03-08T05:33:12;8.50;;;6.18;;
10061;SDS011;5070;52.382;5.270;2024-03-08T05:35:40;7.03;;;6.57;;
10061;SDS011;5070;52.382;5.270;2024-03-08T05:38:08;11.63;;;7.18;;
10061;SDS011;5070;52.382;5.270;2024-03-08T05:40:39;10.00;;;6.05;;
10061;SDS011;5070;52.382;5.270;2024-03-08T05:43:09;6.65;;;6.03;;
10061;SDS011;5070;52.382;5.270;2024-03-08T05:45:38;9.25;;;8.60;;
10061;SDS011;5070;52.382;5.270;2024-03-08T05:48:07;7.75;;;7.35;;
10061;SDS011;5070;52.382;5.270;2024-03-08T05:50:36;6.57;;;6.18;;
10061;SDS011;5070;52.382;5.270;2024-03-08T05:53:04;7.20;;;6.03;;
10061;SDS011;5070;52.382;5.270;2024-03-08T05:55:32;6.90;;;6.50;;
10061;SDS011;5070;52.382;5.270;2024-03-08T05:58:02;9.10;;;6.70;;
10061;SDS011;5070;52.382;5.270;2024-03-08T06:00:29;9.43;;;6.00;;
10061;SDS011;5070;52.382;5.270;2024-03-08T06:02:58;6.53;;;6.10;;
10061;SDS011;5070;52.382;5.270;2024-03-08T06:05:28;12.70;;;6.63;;
10061;SDS011;5070;52.382;5.270;2024-03-08T06:07:56;7.32;;;6.35;;
10061;SDS011;5070;52.382;5.270;2024-03-08T06:10:24;7.90;;;7.38;;
10061;SDS011;5070;52.382;5.270;2024-03-08T06:12:52;9.90;;;6.38;;
10061;SDS011;5070;52.382;5.270;2024-03-08T06:15:21;10.02;;;5.50;;
10061;SDS011;5070;52.382;5.270;2024-03-08T06:17:50;7.93;;;5.95;;
10061;SDS011;5070;52.382;5.270;2024-03-08T06:20:19;6.43;;;6.05;;
10061;SDS011;5070;52.382;5.270;2024-03-08T06:22:50;6.18;;;4.85;;
10061;SDS011;5070;52.382;5.270;2024-03-08T06:25:20;6.90;;;6.50;;
10061;SDS011;5070;52.382;5.270;2024-03-08T06:27:48;9.45;;;7.90;;
10061;SDS011;5070;52.382;5.270;2024-03-08T06:30:17;7.60;;;6.30;;
10061;SDS011;5070;52.382;5.270;2024-03-08T06:32:46;7.70;;;6.07;;
10061;SDS011;5070;52.382;5.270;2024-03-08T06:35:15;13.32;;;6.55;;
10061;SDS011;5070;52.382;5.270;2024-03-08T06:37:43;8.07;;;6.70;;
10061;SDS011;5070;52.382;5.270;2024-03-08T06:40:13;8.10;;;7.70;;
10061;SDS011;5070;52.382;5.270;2024-03-08T06:42:41;7.20;;;6.80;;
10061;SDS011;5070;52.382;5.270;2024-03-08T06:45:09;6.45;;;4.78;;
10061;SDS011;5070;52.382;5.270;2024-03-08T06:47:39;6.47;;;5.97;;
10061;SDS011;5070;52.382;5.270;2024-03-08T06:50:08;14.68;;;6.72;;
10061;SDS011;5070;52.382;5.270;2024-03-08T06:52:37;8.50;;;7.28;;
10061;SDS011;5070;52.382;5.270;2024-03-08T06:55:06;7.97;;;5.70;;
10061;SDS011;5070;52.382;5.270;2024-03-08T06:57:39;7.88;;;6.07;;
10061;SDS011;5070;52.382;5.270;2024-03-08T07:00:08;9.98;;;6.68;;
10061;SDS011;5070;52.382;5.270;2024-03-08T07:02:44;4.93;;;4.65;;
10061;SDS011;5070;52.382;5.270;2024-03-08T07:05:13;7.03;;;5.20;;
10061;SDS011;5070;52.382;5.270;2024-03-08T07:07:41;7.65;;;7.25;;
10061;SDS011;5070;52.382;5.270;2024-03-08T07:10:09;6.30;;;5.18;;
10061;SDS011;5070;52.382;5.270;2024-03-08T07:12:42;8.93;;;4.95;;
10061;SDS011;5070;52.382;5.270;2024-03-08T07:15:10;9.82;;;6.63;;
10061;SDS011;5070;52.382;5.270;2024-03-08T07:17:41;5.20;;;4.40;;
10061;SDS011;5070;52.382;5.270;2024-03-08T07:20:11;6.07;;;5.65;;
10061;SDS011;5070;52.382;5.270;2024-03-08T07:22:40;9.65;;;5.78;;
10061;SDS011;5070;52.382;5.270;2024-03-08T07:25:12;7.53;;;7.15;;
10061;SDS011;5070;52.382;5.270;2024-03-08T07:27:50;9.77;;;6.85;;
10061;SDS011;5070;52.382;5.270;2024-03-08T07:30:21;6.85;;;4.97;;
10061;SDS011;5070;52.382;5.270;2024-03-08T07:33:11;6.25;;;5.93;;
10061;SDS011;5070;52.382;5.270;2024-03-08T07:35:40;3.92;;;3.72;;
10061;SDS011;5070;52.382;5.270;2024-03-08T07:38:10;9.18;;;6.63;;
10061;SDS011;5070;52.382;5.270;2024-03-08T07:40:38;5.38;;;4.88;;
10061;SDS011;5070;52.382;5.270;2024-03-08T07:43:12;5.25;;;4.95;;
10061;SDS011;5070;52.382;5.270;2024-03-08T07:45:40;6.40;;;4.00;;
10061;SDS011;5070;52.382;5.270;2024-03-08T07:48:08;9.05;;;5.45;;
10061;SDS011;5070;52.382;5.270;2024-03-08T07:50:37;8.82;;;5.47;;
10061;SDS011;5070;52.382;5.270;2024-03-08T07:53:06;9.85;;;5.20;;
10061;SDS011;5070;52.382;5.270;2024-03-08T07:55:35;6.07;;;5.55;;
10061;SDS011;5070;52.382;5.270;2024-03-08T07:58:04;6.35;;;5.07;;
10061;SDS011;5070;52.382;5.270;2024-03-08T08:00:33;4.22;;;3.67;;
10061;SDS011;5070;52.382;5.270;2024-03-08T08:03:02;5.38;;;5.00;;
10061;SDS011;5070;52.382;5.270;2024-03-08T08:05:31;6.60;;;5.13;;
10061;SDS011;5070;52.382;5.270;2024-03-08T08:08:01;5.00;;;4.70;;
10061;SDS011;5070;52.382;5.270;2024-03-08T08:10:32;5.25;;;4.65;;
10061;SDS011;5070;52.382;5.270;2024-03-08T08:13:00;5.25;;;4.95;;
10061;SDS011;5070;52.382;5.270;2024-03-08T08:15:34;9.00;;;4.55;;
10061;SDS011;5070;52.382;5.270;2024-03-08T08:18:05;5.50;;;5.05;;
10061;SDS011;5070;52.382;5.270;2024-03-08T08:20:36;6.60;;;6.20;;
10061;SDS011;5070;52.382;5.270;2024-03-08T08:23:04;5.28;;;4.90;;
10061;SDS011;5070;52.382;5.270;2024-03-08T08:25:32;4.55;;;3.75;;
10061;SDS011;5070;52.382;5.270;2024-03-08T08:28:01;5.68;;;4.40;;
10061;SDS011;5070;52.382;5.270;2024-03-08T08:30:31;7.88;;;6.30;;
10061;SDS011;5070;52.382;5.270;2024-03-08T08:33:01;5.68;;;5.38;;
10061;SDS011;5070;52.382;5.270;2024-03-08T08:35:31;5.43;;;5.13;;
10061;SDS011;5070;52.382;5.270;2024-03-08T08:38:00;5.55;;;4.57;;
10061;SDS011;5070;52.382;5.270;2024-03-08T08:40:30;7.40;;;6.10;;
10061;SDS011;5070;52.382;5.270;2024-03-08T08:42:59;5.93;;;5.60;;
10061;SDS011;5070;52.382;5.270;2024-03-08T08:45:27;6.22;;;5.80;;
10061;SDS011;5070;52.382;5.270;2024-03-08T08:47:56;8.95;;;5.40;;
10061;SDS011;5070;52.382;5.270;2024-03-08T08:50:27;6.88;;;5.55;;
10061;SDS011;5070;52.382;5.270;2024-03-08T08:52:55;6.63;;;5.68;;
10061;SDS011;5070;52.382;5.270;2024-03-08T08:55:23;6.63;;;5.13;;
10061;SDS011;5070;52.382;5.270;2024-03-08T08:57:53;5.63;;;5.18;;
10061;SDS011;5070;52.382;5.270;2024-03-08T09:00:22;4.55;;;4.25;;
10061;SDS011;5070;52.382;5.270;2024-03-08T09:02:54;5.43;;;5.13;;
10061;SDS011;5070;52.382;5.270;2024-03-08T09:05:27;6.53;;;6.15;;
10061;SDS011;5070;52.382;5.270;2024-03-08T09:07:55;9.18;;;5.80;;
10061;SDS011;5070;52.382;5.270;2024-03-08T09:10:24;10.02;;;6.22;;
10061;SDS011;5070;52.382;5.270;2024-03-08T09:12:54;5.82;;;4.97;;
10061;SDS011;5070;52.382;5.270;2024-03-08T09:15:22;5.70;;;5.40;;
10061;SDS011;5070;52.382;5.270;2024-03-08T09:17:55;10.15;;;8.25;;
10061;SDS011;5070;52.382;5.270;2024-03-08T09:20:23;5.57;;;5.28;;
10061;SDS011;5070;52.382;5.270;2024-03-08T09:22:52;6.57;;;4.38;;
10061;SDS011;5070;52.382;5.270;2024-03-08T09:25:21;6.90;;;5.25;;
10061;SDS011;5070;52.382;5.270;2024-03-08T09:27:49;5.40;;;5.05;;
10061;SDS011;5070;52.382;5.270;2024-03-08T09:30:17;8.35;;;6.40;;
10061;SDS011;5070;52.382;5.270;2024-03-08T09:32:48;8.73;;;6.10;;
10061;SDS011;5070;52.382;5.270;2024-03-08T09:35:18;5.65;;;4.97;;
10061;SDS011;5070;52.382;5.270;2024-03-08T09:37:46;9.55;;;5.60;;
10061;SDS011;5070;52.382;5.270;2024-03-08T09:40:19;11.82;;;7.97;;
10061;SDS011;5070;52.382;5.270;2024-03-08T09:42:50;11.85;;;6.93;;
10061;SDS011;5070;52.382;5.270;2024-03-08T09:45:19;6.10;;;5.80;;
10061;SDS011;5070;52.382;5.270;2024-03-08T09:47:50;7.22;;;6.32;;
10061;SDS011;5070;52.382;5.270;2024-03-08T09:50:19;9.32;;;5.78;;
10061;SDS011;5070;52.382;5.270;2024-03-08T09:52:48;5.38;;;5.07;;
10061;SDS011;5070;52.382;5.270;2024-03-08T09:55:18;6.72;;;6.32;;
10061;SDS011;5070;52.382;5.270;2024-03-08T09:57:49;5.85;;;4.72;;
10061;SDS011;5070;52.382;5.270;2024-03-08T10:00:35;6.47;;;6.10;;
10061;SDS011;5070;52.382;5.270;2024-03-08T10:03:03;7.47;;;5.72;;
10061;SDS011;5070;52.382;5.270;2024-03-08T10:05:32;5.50;;;5.20;;
10061;SDS011;5070;52.382;5.270;2024-03-08T10:08:01;6.22;;;5.90;;
10061;SDS011;5070;52.382;5.270;2024-03-08T10:10:33;7.60;;;7.20;;
10061;SDS011;5070;52.382;5.270;2024-03-08T10:13:02;4.65;;;4.35;;
10061;SDS011;5070;52.382;5.270;2024-03-08T10:15:32;5.47;;;5.22;;
10061;SDS011;5070;52.382;5.270;2024-03-08T10:18:00;6.68;;;5.78;;
10061;SDS011;5070;52.382;5.270;2024-03-08T10:20:29;8.27;;;6.68;;
10061;SDS011;5070;52.382;5.270;2024-03-08T10:22:59;6.65;;;6.25;;
10061;SDS011;5070;52.382;5.270;2024-03-08T10:25:38;7.75;;;5.50;;
10061;SDS011;5070;52.382;5.270;2024-03-08T10:28:06;5.95;;;5.65;;
10061;SDS011;5070;52.382;5.270;2024-03-08T10:30:34;10.48;;;6.75;;
10061;SDS011;5070;52.382;5.270;2024-03-08T10:33:02;6.97;;;6.40;;
10061;SDS011;5070;52.382;5.270;2024-03-08T10:35:31;9.63;;;6.10;;
10061;SDS011;5070;52.382;5.270;2024-03-08T10:38:00;7.50;;;7.10;;
10061;SDS011;5070;52.382;5.270;2024-03-08T10:40:34;9.60;;;7.57;;
10061;SDS011;5070;52.382;5.270;2024-03-08T10:43:10;9.80;;;5.43;;
10061;SDS011;5070;52.382;5.270;2024-03-08T10:45:56;11.15;;;7.25;;
10061;SDS011;5070;52.382;5.270;2024-03-08T10:48:33;6.07;;;5.60;;
10061;SDS011;5070;52.382;5.270;2024-03-08T10:51:10;9.80;;;8.25;;
10061;SDS011;5070;52.382;5.270;2024-03-08T10:53:39;6.78;;;6.38;;
10061;SDS011;5070;52.382;5.270;2024-03-08T10:56:08;5.25;;;4.75;;
10061;SDS011;5070;52.382;5.270;2024-03-08T10:58:38;6.15;;;5.85;;
10061;SDS011;5070;52.382;5.270;2024-03-08T11:01:07;6.63;;;5.45;;
10061;SDS011;5070;52.382;5.270;2024-03-08T11:03:46;8.82;;;4.90;;
10061;SDS011;5070;52.382;5.270;2024-03-08T11:06:21;9.38;;;6.25;;
10061;SDS011;5070;52.382;5.270;2024-03-08T11:08:56;7.93;;;7.53;;
10061;SDS011;5070;52.382;5.270;2024-03-08T11:11:25;8.95;;;5.35;;
10061;SDS011;5070;52.382;5.270;2024-03-08T11:14:01;6.70;;;6.05;;
10061;SDS011;5070;52.382;5.270;2024-03-08T11:16:37;9.43;;;8.93;;
10061;SDS011;5070;52.382;5.270;2024-03-08T11:19:22;10.75;;;6.28;;
10061;SDS011;5070;52.382;5.270;2024-03-08T11:21:57;5.93;;;5.63;;
10061;SDS011;5070;52.382;5.270;2024-03-08T11:24:25;9.10;;;8.63;;
10061;SDS011;5070;52.382;5.270;2024-03-08T11:26:56;6.68;;;5.75;;
10061;SDS011;5070;52.382;5.270;2024-03-08T11:29:35;8.00;;;4.90;;
10061;SDS011;5070;52.382;5.270;2024-03-08T11:32:09;6.88;;;6.47;;
10061;SDS011;5070;52.382;5.270;2024-03-08T11:34:41;8.55;;;4.90;;
10061;SDS011;5070;52.382;5.270;2024-03-08T11:37:11;7.30;;;4.80;;
10061;SDS011;5070;52.382;5.270;2024-03-08T11:39:45;7.18;;;6.78;;
10061;SDS011;5070;52.382;5.270;2024-03-08T11:42:17;8.48;;;5.13;;
10061;SDS011;5070;52.382;5.270;2024-03-08T11:44:50;7.20;;;5.40;;
10061;SDS011;5070;52.382;5.270;2024-03-08T11:47:18;8.52;;;5.85;;
10061;SDS011;5070;52.382;5.270;2024-03-08T11:49:48;6.97;;;6.35;;
10061;SDS011;5070;52.382;5.270;2024-03-08T11:52:16;7.28;;;5.72;;
10061;SDS011;5070;52.382;5.270;2024-03-08T11:54:48;6.28;;;5.35;;
10061;SDS011;5070;52.382;5.270;2024-03-08T11:57:21;5.07;;;3.67;;
10061;SDS011;5070;52.382;5.270;2024-03-08T11:59:51;5.85;;;4.40;;
10061;SDS011;5070;52.382;5.270;2024-03-08T12:02:23;5.90;;;5.60;;
10061;SDS011;5070;52.382;5.270;2024-03-08T12:04:55;7.45;;;5.63;;
10061;SDS011;5070;52.382;5.270;2024-03-08T12:07:26;9.02;;;5.88;;
10061;SDS011;5070;52.382;5.270;2024-03-08T12:12:46;5.45;;;4.25;;
10061;SDS011;5070;52.382;5.270;2024-03-08T12:15:17;8.95;;;5.50;;
10061;SDS011;5070;52.382;5.270;2024-03-08T12:17:47;8.23;;;6.00;;
10061;SDS011;5070;52.382;5.270;2024-03-08T12:20:17;6.28;;;5.25;;
10061;SDS011;5070;52.382;5.270;2024-03-08T12:22:48;7.65;;;6.70;;
10061;SDS011;5070;52.382;5.270;2024-03-08T12:25:18;8.50;;;4.38;;
10061;SDS011;5070;52.382;5.270;2024-03-08T12:27:47;5.10;;;4.80;;
10061;SDS011;5070;52.382;5.270;2024-03-08T12:30:18;5.68;;;5.38;;
10061;SDS011;5070;52.382;5.270;2024-03-08T12:32:49;9.90;;;8.10;;
10061;SDS011;5070;52.382;5.270;2024-03-08T12:35:20;4.38;;;4.07;;
10061;SDS011;5070;52.382;5.270;2024-03-08T12:37:49;8.30;;;2.85;;
10061;SDS011;5070;52.382;5.270;2024-03-08T12:40:19;6.43;;;5.40;;
10061;SDS011;5070;52.382;5.270;2024-03-08T12:42:53;4.97;;;3.40;;
10061;SDS011;5070;52.382;5.270;2024-03-08T12:45:23;9.27;;;6.40;;
10061;SDS011;5070;52.382;5.270;2024-03-08T12:47:51;4.47;;;3.72;;
10061;SDS011;5070;52.382;5.270;2024-03-08T12:50:21;5.32;;;3.97;;
10061;SDS011;5070;52.382;5.270;2024-03-08T12:52:49;6.13;;;4.75;;
10061;SDS011;5070;52.382;5.270;2024-03-08T12:55:19;4.53;;;4.25;;
10061;SDS011;5070;52.382;5.270;2024-03-08T12:57:47;6.65;;;4.40;;
10061;SDS011;5070;52.382;5.270;2024-03-08T13:00:16;9.60;;;3.85;;
10061;SDS011;5070;52.382;5.270;2024-03-08T13:02:47;4.90;;;3.95;;
10061;SDS011;5070;52.382;5.270;2024-03-08T13:05:17;9.88;;;5.07;;
10061;SDS011;5070;52.382;5.270;2024-03-08T13:07:48;4.30;;;3.80;;
10061;SDS011;5070;52.382;5.270;2024-03-08T13:10:17;5.35;;;5.05;;
10061;SDS011;5070;52.382;5.270;2024-03-08T13:12:47;9.68;;;5.25;;
10061;SDS011;5070;52.382;5.270;2024-03-08T13:15:19;5.05;;;4.18;;
10061;SDS011;5070;52.382;5.270;2024-03-08T13:17:48;6.20;;;5.05;;
10061;SDS011;5070;52.382;5.270;2024-03-08T13:20:17;6.65;;;6.28;;
10061;SDS011;5070;52.382;5.270;2024-03-08T13:22:56;5.47;;;5.18;;
10061;SDS011;5070;52.382;5.270;2024-03-08T13:25:28;5.65;;;5.35;;
10061;SDS011;5070;52.382;5.270;2024-03-08T13:27:56;4.82;;;4.55;;
10061;SDS011;5070;52.382;5.270;2024-03-08T13:30:25;6.93;;;6.18;;
10061;SDS011;5070;52.382;5.270;2024-03-08T13:32:55;6.53;;;4.32;;
10061;SDS011;5070;52.382;5.270;2024-03-08T13:35:23;4.55;;;4.25;;
10061;SDS011;5070;52.382;5.270;2024-03-08T13:37:53;5.05;;;3.25;;
10061;SDS011;5070;52.382;5.270;2024-03-08T13:40:22;6.43;;;5.40;;
10061;SDS011;5070;52.382;5.270;2024-03-08T13:42:50;7.72;;;4.18;;
10061;SDS011;5070;52.382;5.270;2024-03-08T13:45:18;4.60;;;4.30;;
10061;SDS011;5070;52.382;5.270;2024-03-08T13:47:50;9.52;;;5.00;;
10061;SDS011;5070;52.382;5.270;2024-03-08T13:50:22;5.63;;;5.32;;
10061;SDS011;5070;52.382;5.270;2024-03-08T13:52:52;7.70;;;4.65;;
10061;SDS011;5070;52.382;5.270;2024-03-08T13:55:22;6.55;;;5.38;;
10061;SDS011;5070;52.382;5.270;2024-03-08T13:57:52;9.25;;;4.90;;
10061;SDS011;5070;52.382;5.270;2024-03-08T14:00:20;4.57;;;4.32;;
10061;SDS011;5070;52.382;5.270;2024-03-08T14:02:52;3.90;;;3.65;;
10061;SDS011;5070;52.382;5.270;2024-03-08T14:05:20;4.78;;;3.88;;
10061;SDS011;5070;52.382;5.270;2024-03-08T14:07:50;5.97;;;5.68;;
10061;SDS011;5070;52.382;5.270;2024-03-08T14:10:21;6.70;;;4.10;;
10061;SDS011;5070;52.382;5.270;2024-03-08T14:12:50;6.13;;;5.43;;
10061;SDS011;5070;52.382;5.270;2024-03-08T14:15:18;7.00;;;4.85;;
10061;SDS011;5070;52.382;5.270;2024-03-08T14:17:51;6.00;;;4.97;;
10061;SDS011;5070;52.382;5.270;2024-03-08T14:20:24;7.20;;;4.18;;
10061;SDS011;5070;52.382;5.270;2024-03-08T14:22:54;4.82;;;4.13;;
10061;SDS011;5070;52.382;5.270;2024-03-08T14:25:23;6.60;;;4.55;;
10061;SDS011;5070;52.382;5.270;2024-03-08T14:27:52;4.95;;;4.68;;
10061;SDS011;5070;52.382;5.270;2024-03-08T14:30:28;4.05;;;3.85;;
10061;SDS011;5070;52.382;5.270;2024-03-08T14:33:04;5.43;;;4.45;;
10061;SDS011;5070;52.382;5.270;2024-03-08T14:35:36;7.93;;;7.53;;
10061;SDS011;5070;52.382;5.270;2024-03-08T14:38:05;5.10;;;4.80;;
10061;SDS011;5070;52.382;5.270;2024-03-08T14:40:34;2.83;;;2.53;;
10061;SDS011;5070;52.382;5.270;2024-03-08T14:43:03;7.45;;;5.00;;
10061;SDS011;5070;52.382;5.270;2024-03-08T14:45:32;5.45;;;5.15;;
10061;SDS011;5070;52.382;5.270;2024-03-08T14:48:01;6.25;;;5.50;;
10061;SDS011;5070;52.382;5.270;2024-03-08T14:50:31;8.80;;;6.30;;
10061;SDS011;5070;52.382;5.270;2024-03-08T14:52:59;7.30;;;4.35;;
10061;SDS011;5070;52.382;5.270;2024-03-08T14:55:29;4.43;;;4.13;;
10061;SDS011;5070;52.382;5.270;2024-03-08T14:57:57;5.22;;;4.22;;
10061;SDS011;5070;52.382;5.270;2024-03-08T15:00:25;4.47;;;3.38;;
10061;SDS011;5070;52.382;5.270;2024-03-08T15:03:00;8.48;;;5.00;;
10061;SDS011;5070;52.382;5.270;2024-03-08T15:05:31;4.72;;;3.80;;
10061;SDS011;5070;52.382;5.270;2024-03-08T15:08:02;7.82;;;5.03;;
10061;SDS011;5070;52.382;5.270;2024-03-08T15:10:39;6.20;;;4.15;;
10061;SDS011;5070;52.382;5.270;2024-03-08T15:13:08;7.75;;;5.20;;
10061;SDS011;5070;52.382;5.270;2024-03-08T15:15:48;9.52;;;6.30;;